Terminal Aerodrome Forecast
Issued by NWS

Home | Current Version | Previous Version | Text Only | Print | Product List | Glossary On
Versions: 1 2 3 4 5 6 7 8 9 10 11 12 13 14 15 16 17
000
FTUS41 KALY 041133
TAFPSF
TAF
KPSF 041133Z 0412/0512 00000KT P6SM VCSH SCT040 OVC120
     FM041400 VRB03KT 6SM -SHRA SCT020 OVC040
     FM041700 VRB03KT 3SM -RA BR OVC020
     FM042200 21004KT P6SM VCSH BKN035 OVC050
     FM050200 00000KT P6SM BKN035 BKN050
     FM050500 00000KT 5SM BR SCT050
     FM050700 00000KT 2SM BR SCT005=

USA.gov is the U.S. government's official web portal to all federal, state and local government web resources and services.